sensor_id;sensor_type;location;lat;lon;timestamp;P1;durP1;ratioP1;P2;durP2;ratioP2
6135;SDS011;24008;42.664;23.372;2022-09-09T00:00:24;19.50;;;13.67;;
6135;SDS011;24008;42.664;23.372;2022-09-09T00:02:59;16.13;;;13.43;;
6135;SDS011;24008;42.664;23.372;2022-09-09T00:05:31;16.83;;;13.37;;
6135;SDS011;24008;42.664;23.372;2022-09-09T00:08:06;18.63;;;13.97;;
6135;SDS011;24008;42.664;23.372;2022-09-09T00:10:41;18.53;;;13.73;;
6135;SDS011;24008;42.664;23.372;2022-09-09T00:13:15;15.53;;;13.23;;
6135;SDS011;24008;42.664;23.372;2022-09-09T00:15:50;16.47;;;13.57;;
6135;SDS011;24008;42.664;23.372;2022-09-09T00:18:24;18.37;;;13.43;;
6135;SDS011;24008;42.664;23.372;2022-09-09T00:21:00;15.03;;;12.83;;
6135;SDS011;24008;42.664;23.372;2022-09-09T00:23:32;16.30;;;13.83;;
6135;SDS011;24008;42.664;23.372;2022-09-09T00:26:04;19.53;;;14.13;;
6135;SDS011;24008;42.664;23.372;2022-09-09T00:28:41;17.20;;;13.93;;
6135;SDS011;24008;42.664;23.372;2022-09-09T00:31:18;16.33;;;14.10;;
6135;SDS011;24008;42.664;23.372;2022-09-09T00:33:49;16.40;;;12.80;;
6135;SDS011;24008;42.664;23.372;2022-09-09T00:36:18;16.67;;;13.90;;
6135;SDS011;24008;42.664;23.372;2022-09-09T00:38:48;15.60;;;13.87;;
6135;SDS011;24008;42.664;23.372;2022-09-09T00:41:20;15.00;;;13.17;;
6135;SDS011;24008;42.664;23.372;2022-09-09T00:43:55;16.13;;;13.47;;
6135;SDS011;24008;42.664;23.372;2022-09-09T00:46:41;17.57;;;13.73;;
6135;SDS011;24008;42.664;23.372;2022-09-09T00:49:32;16.50;;;13.50;;
6135;SDS011;24008;42.664;23.372;2022-09-09T00:52:10;15.93;;;12.50;;
6135;SDS011;24008;42.664;23.372;2022-09-09T00:54:51;16.40;;;13.30;;
6135;SDS011;24008;42.664;23.372;2022-09-09T00:57:27;19.63;;;13.43;;
6135;SDS011;24008;42.664;23.372;2022-09-09T00:59:58;15.53;;;12.40;;
6135;SDS011;24008;42.664;23.372;2022-09-09T01:02:44;18.47;;;12.50;;
6135;SDS011;24008;42.664;23.372;2022-09-09T01:05:22;13.53;;;12.13;;
6135;SDS011;24008;42.664;23.372;2022-09-09T01:07:56;14.80;;;12.03;;
6135;SDS011;24008;42.664;23.372;2022-09-09T01:10:29;13.87;;;11.73;;
6135;SDS011;24008;42.664;23.372;2022-09-09T01:13:08;14.17;;;11.40;;
6135;SDS011;24008;42.664;23.372;2022-09-09T01:15:41;13.63;;;12.10;;
6135;SDS011;24008;42.664;23.372;2022-09-09T01:18:14;16.10;;;12.27;;
6135;SDS011;24008;42.664;23.372;2022-09-09T01:20:46;13.07;;;11.77;;
6135;SDS011;24008;42.664;23.372;2022-09-09T01:23:34;14.40;;;12.60;;
6135;SDS011;24008;42.664;23.372;2022-09-09T01:26:14;16.60;;;12.57;;
6135;SDS011;24008;42.664;23.372;2022-09-09T01:28:45;13.53;;;11.97;;
6135;SDS011;24008;42.664;23.372;2022-09-09T01:31:15;13.73;;;11.93;;
6135;SDS011;24008;42.664;23.372;2022-09-09T01:33:45;14.00;;;11.93;;
6135;SDS011;24008;42.664;23.372;2022-09-09T01:36:13;13.40;;;12.00;;
6135;SDS011;24008;42.664;23.372;2022-09-09T01:38:47;14.57;;;12.10;;
6135;SDS011;24008;42.664;23.372;2022-09-09T01:41:16;16.23;;;13.67;;
6135;SDS011;24008;42.664;23.372;2022-09-09T01:43:43;15.93;;;13.17;;
6135;SDS011;24008;42.664;23.372;2022-09-09T01:46:10;15.13;;;13.27;;
6135;SDS011;24008;42.664;23.372;2022-09-09T01:48:38;16.70;;;13.43;;
6135;SDS011;24008;42.664;23.372;2022-09-09T01:51:07;15.37;;;13.77;;
6135;SDS011;24008;42.664;23.372;2022-09-09T01:53:35;15.93;;;13.73;;
6135;SDS011;24008;42.664;23.372;2022-09-09T01:56:07;19.63;;;15.47;;
6135;SDS011;24008;42.664;23.372;2022-09-09T01:58:46;19.03;;;13.83;;
6135;SDS011;24008;42.664;23.372;2022-09-09T02:01:25;19.23;;;14.87;;
6135;SDS011;24008;42.664;23.372;2022-09-09T02:04:02;19.33;;;14.37;;
6135;SDS011;24008;42.664;23.372;2022-09-09T02:06:35;18.30;;;14.80;;
6135;SDS011;24008;42.664;23.372;2022-09-09T02:09:04;15.10;;;13.60;;
6135;SDS011;24008;42.664;23.372;2022-09-09T02:11:32;15.97;;;13.60;;
6135;SDS011;24008;42.664;23.372;2022-09-09T02:14:03;15.87;;;13.20;;
6135;SDS011;24008;42.664;23.372;2022-09-09T02:16:36;17.57;;;13.37;;
6135;SDS011;24008;42.664;23.372;2022-09-09T02:19:08;19.13;;;14.00;;
6135;SDS011;24008;42.664;23.372;2022-09-09T02:21:39;14.23;;;12.73;;
6135;SDS011;24008;42.664;23.372;2022-09-09T02:24:10;18.00;;;14.10;;
6135;SDS011;24008;42.664;23.372;2022-09-09T02:26:39;14.17;;;12.60;;
6135;SDS011;24008;42.664;23.372;2022-09-09T02:29:11;14.00;;;12.57;;
6135;SDS011;24008;42.664;23.372;2022-09-09T02:31:41;14.80;;;12.33;;
6135;SDS011;24008;42.664;23.372;2022-09-09T02:34:12;14.07;;;12.57;;
6135;SDS011;24008;42.664;23.372;2022-09-09T02:36:41;15.77;;;12.50;;
6135;SDS011;24008;42.664;23.372;2022-09-09T02:39:11;16.10;;;12.53;;
6135;SDS011;24008;42.664;23.372;2022-09-09T02:41:40;17.30;;;13.53;;
6135;SDS011;24008;42.664;23.372;2022-09-09T02:44:10;14.07;;;12.53;;
6135;SDS011;24008;42.664;23.372;2022-09-09T02:49:40;14.90;;;13.03;;
6135;SDS011;24008;42.664;23.372;2022-09-09T02:52:14;15.33;;;12.70;;
6135;SDS011;24008;42.664;23.372;2022-09-09T02:54:44;17.67;;;12.83;;
6135;SDS011;24008;42.664;23.372;2022-09-09T02:57:12;15.80;;;12.73;;
6135;SDS011;24008;42.664;23.372;2022-09-09T02:59:44;18.33;;;13.23;;
6135;SDS011;24008;42.664;23.372;2022-09-09T03:02:11;14.87;;;13.10;;
6135;SDS011;24008;42.664;23.372;2022-09-09T03:04:39;15.73;;;13.13;;
6135;SDS011;24008;42.664;23.372;2022-09-09T03:07:06;17.63;;;12.83;;
6135;SDS011;24008;42.664;23.372;2022-09-09T03:09:33;19.17;;;13.50;;
6135;SDS011;24008;42.664;23.372;2022-09-09T03:12:00;17.27;;;13.20;;
6135;SDS011;24008;42.664;23.372;2022-09-09T03:14:29;14.63;;;12.50;;
6135;SDS011;24008;42.664;23.372;2022-09-09T03:16:57;14.43;;;12.87;;
6135;SDS011;24008;42.664;23.372;2022-09-09T03:19:26;16.67;;;13.37;;
6135;SDS011;24008;42.664;23.372;2022-09-09T03:21:53;16.07;;;13.63;;
6135;SDS011;24008;42.664;23.372;2022-09-09T03:24:20;16.47;;;13.20;;
6135;SDS011;24008;42.664;23.372;2022-09-09T03:26:47;20.63;;;13.60;;
6135;SDS011;24008;42.664;23.372;2022-09-09T03:29:15;16.33;;;13.30;;
6135;SDS011;24008;42.664;23.372;2022-09-09T03:31:43;15.03;;;12.90;;
6135;SDS011;24008;42.664;23.372;2022-09-09T03:34:11;16.43;;;13.30;;
6135;SDS011;24008;42.664;23.372;2022-09-09T03:36:41;21.53;;;14.83;;
6135;SDS011;24008;42.664;23.372;2022-09-09T03:39:07;19.20;;;14.47;;
6135;SDS011;24008;42.664;23.372;2022-09-09T03:41:34;20.00;;;14.27;;
6135;SDS011;24008;42.664;23.372;2022-09-09T03:44:02;15.37;;;13.60;;
6135;SDS011;24008;42.664;23.372;2022-09-09T03:46:29;16.77;;;13.50;;
6135;SDS011;24008;42.664;23.372;2022-09-09T03:48:56;17.80;;;15.23;;
6135;SDS011;24008;42.664;23.372;2022-09-09T03:51:24;16.30;;;14.37;;
6135;SDS011;24008;42.664;23.372;2022-09-09T03:53:51;17.13;;;14.30;;
6135;SDS011;24008;42.664;23.372;2022-09-09T03:56:23;17.80;;;14.23;;
6135;SDS011;24008;42.664;23.372;2022-09-09T03:58:53;22.60;;;16.13;;
6135;SDS011;24008;42.664;23.372;2022-09-09T04:01:37;21.33;;;16.07;;
6135;SDS011;24008;42.664;23.372;2022-09-09T04:04:05;22.63;;;15.70;;
6135;SDS011;24008;42.664;23.372;2022-09-09T04:06:34;21.77;;;18.07;;
6135;SDS011;24008;42.664;23.372;2022-09-09T04:09:01;22.50;;;17.27;;
6135;SDS011;24008;42.664;23.372;2022-09-09T04:11:28;26.77;;;19.37;;
6135;SDS011;24008;42.664;23.372;2022-09-09T04:13:55;48.37;;;34.77;;
6135;SDS011;24008;42.664;23.372;2022-09-09T04:16:21;62.30;;;45.90;;
6135;SDS011;24008;42.664;23.372;2022-09-09T04:18:48;57.70;;;42.53;;
6135;SDS011;24008;42.664;23.372;2022-09-09T04:21:15;42.97;;;27.73;;
6135;SDS011;24008;42.664;23.372;2022-09-09T04:23:44;26.27;;;20.37;;
6135;SDS011;24008;42.664;23.372;2022-09-09T04:26:13;22.97;;;17.73;;
6135;SDS011;24008;42.664;23.372;2022-09-09T04:28:40;20.93;;;16.17;;
6135;SDS011;24008;42.664;23.372;2022-09-09T04:31:10;21.10;;;16.90;;
6135;SDS011;24008;42.664;23.372;2022-09-09T04:33:41;21.40;;;17.03;;
6135;SDS011;24008;42.664;23.372;2022-09-09T04:36:08;21.43;;;16.87;;
6135;SDS011;24008;42.664;23.372;2022-09-09T04:38:35;18.57;;;15.57;;
6135;SDS011;24008;42.664;23.372;2022-09-09T04:41:04;18.33;;;14.97;;
6135;SDS011;24008;42.664;23.372;2022-09-09T04:43:31;19.17;;;14.87;;
6135;SDS011;24008;42.664;23.372;2022-09-09T04:45:58;19.50;;;15.43;;
6135;SDS011;24008;42.664;23.372;2022-09-09T04:48:25;18.00;;;16.10;;
6135;SDS011;24008;42.664;23.372;2022-09-09T04:50:56;21.27;;;17.20;;
6135;SDS011;24008;42.664;23.372;2022-09-09T04:53:23;18.27;;;16.00;;
6135;SDS011;24008;42.664;23.372;2022-09-09T04:55:51;20.07;;;15.70;;
6135;SDS011;24008;42.664;23.372;2022-09-09T04:58:20;22.80;;;15.90;;
6135;SDS011;24008;42.664;23.372;2022-09-09T05:00:48;18.30;;;16.27;;
6135;SDS011;24008;42.664;23.372;2022-09-09T05:03:15;21.40;;;16.20;;
6135;SDS011;24008;42.664;23.372;2022-09-09T05:05:43;21.87;;;16.33;;
6135;SDS011;24008;42.664;23.372;2022-09-09T05:08:09;21.97;;;16.13;;
6135;SDS011;24008;42.664;23.372;2022-09-09T05:10:37;20.67;;;15.23;;
6135;SDS011;24008;42.664;23.372;2022-09-09T05:13:07;20.73;;;14.13;;
6135;SDS011;24008;42.664;23.372;2022-09-09T05:15:36;14.77;;;12.65;;
6135;SDS011;24008;42.664;23.372;2022-09-09T05:18:03;16.40;;;12.43;;
6135;SDS011;24008;42.664;23.372;2022-09-09T05:20:30;14.52;;;11.10;;
6135;SDS011;24008;42.664;23.372;2022-09-09T05:22:57;14.60;;;11.43;;
6135;SDS011;24008;42.664;23.372;2022-09-09T05:25:23;11.57;;;10.25;;
6135;SDS011;24008;42.664;23.372;2022-09-09T05:27:51;16.33;;;10.57;;
6135;SDS011;24008;42.664;23.372;2022-09-09T05:30:18;12.35;;;9.55;;
6135;SDS011;24008;42.664;23.372;2022-09-09T05:32:47;11.48;;;9.52;;
6135;SDS011;24008;42.664;23.372;2022-09-09T05:35:14;14.25;;;9.90;;
6135;SDS011;24008;42.664;23.372;2022-09-09T05:37:41;16.25;;;10.02;;
6135;SDS011;24008;42.664;23.372;2022-09-09T05:40:09;14.23;;;9.25;;
6135;SDS011;24008;42.664;23.372;2022-09-09T05:42:37;11.82;;;9.05;;
6135;SDS011;24008;42.664;23.372;2022-09-09T05:45:05;10.85;;;9.15;;
6135;SDS011;24008;42.664;23.372;2022-09-09T05:47:32;10.32;;;9.32;;
6135;SDS011;24008;42.664;23.372;2022-09-09T05:50:01;11.30;;;8.90;;
6135;SDS011;24008;42.664;23.372;2022-09-09T05:52:28;12.10;;;8.73;;
6135;SDS011;24008;42.664;23.372;2022-09-09T05:54:54;13.27;;;9.18;;
6135;SDS011;24008;42.664;23.372;2022-09-09T05:57:22;12.55;;;8.82;;
6135;SDS011;24008;42.664;23.372;2022-09-09T05:59:49;10.50;;;8.15;;
6135;SDS011;24008;42.664;23.372;2022-09-09T06:02:16;10.65;;;7.95;;
6135;SDS011;24008;42.664;23.372;2022-09-09T06:04:42;13.25;;;8.73;;
6135;SDS011;24008;42.664;23.372;2022-09-09T06:07:11;14.30;;;9.27;;
6135;SDS011;24008;42.664;23.372;2022-09-09T06:09:39;9.82;;;8.65;;
6135;SDS011;24008;42.664;23.372;2022-09-09T06:12:06;10.65;;;8.50;;
6135;SDS011;24008;42.664;23.372;2022-09-09T06:14:34;12.25;;;9.02;;
6135;SDS011;24008;42.664;23.372;2022-09-09T06:17:03;15.23;;;9.23;;
6135;SDS011;24008;42.664;23.372;2022-09-09T06:19:30;11.30;;;9.13;;
6135;SDS011;24008;42.664;23.372;2022-09-09T06:21:57;12.23;;;8.52;;
6135;SDS011;24008;42.664;23.372;2022-09-09T06:24:25;9.00;;;8.05;;
6135;SDS011;24008;42.664;23.372;2022-09-09T06:26:52;11.85;;;9.80;;
6135;SDS011;24008;42.664;23.372;2022-09-09T06:29:19;13.63;;;9.60;;
6135;SDS011;24008;42.664;23.372;2022-09-09T06:31:46;11.30;;;8.63;;
6135;SDS011;24008;42.664;23.372;2022-09-09T06:34:13;10.80;;;7.70;;
6135;SDS011;24008;42.664;23.372;2022-09-09T06:36:42;12.40;;;8.95;;
6135;SDS011;24008;42.664;23.372;2022-09-09T06:39:11;15.32;;;11.15;;
6135;SDS011;24008;42.664;23.372;2022-09-09T06:41:40;11.35;;;10.15;;
6135;SDS011;24008;42.664;23.372;2022-09-09T06:44:07;45.67;;;13.88;;
6135;SDS011;24008;42.664;23.372;2022-09-09T06:46:37;94.15;;;16.75;;
6135;SDS011;24008;42.664;23.372;2022-09-09T06:49:04;35.33;;;11.70;;
6135;SDS011;24008;42.664;23.372;2022-09-09T06:51:32;123.50;;;19.27;;
6135;SDS011;24008;42.664;23.372;2022-09-09T06:54:01;102.25;;;18.10;;
6135;SDS011;24008;42.664;23.372;2022-09-09T06:56:30;126.57;;;17.80;;
6135;SDS011;24008;42.664;23.372;2022-09-09T06:59:00;24.42;;;8.18;;
6135;SDS011;24008;42.664;23.372;2022-09-09T07:01:30;41.83;;;9.95;;
6135;SDS011;24008;42.664;23.372;2022-09-09T07:04:00;80.43;;;13.60;;
6135;SDS011;24008;42.664;23.372;2022-09-09T07:06:30;22.08;;;7.55;;
6135;SDS011;24008;42.664;23.372;2022-09-09T07:08:58;28.35;;;7.80;;
6135;SDS011;24008;42.664;23.372;2022-09-09T07:11:30;59.47;;;12.05;;
6135;SDS011;24008;42.664;23.372;2022-09-09T07:14:08;29.42;;;7.93;;
6135;SDS011;24008;42.664;23.372;2022-09-09T07:16:38;38.33;;;10.32;;
6135;SDS011;24008;42.664;23.372;2022-09-09T07:19:04;34.38;;;9.95;;
6135;SDS011;24008;42.664;23.372;2022-09-09T07:21:31;6.15;;;5.50;;
6135;SDS011;24008;42.664;23.372;2022-09-09T07:23:59;30.17;;;8.43;;
6135;SDS011;24008;42.664;23.372;2022-09-09T07:26:28;10.98;;;6.00;;
6135;SDS011;24008;42.664;23.372;2022-09-09T07:28:56;12.18;;;5.95;;
6135;SDS011;24008;42.664;23.372;2022-09-09T07:31:25;14.10;;;6.30;;
6135;SDS011;24008;42.664;23.372;2022-09-09T07:33:55;9.95;;;6.20;;
6135;SDS011;24008;42.664;23.372;2022-09-09T07:36:24;22.60;;;7.50;;
6135;SDS011;24008;42.664;23.372;2022-09-09T07:38:53;164.57;;;20.35;;
6135;SDS011;24008;42.664;23.372;2022-09-09T07:41:22;25.05;;;7.32;;
6135;SDS011;24008;42.664;23.372;2022-09-09T07:43:51;15.10;;;6.40;;
6135;SDS011;24008;42.664;23.372;2022-09-09T07:46:20;160.23;;;18.38;;
6135;SDS011;24008;42.664;23.372;2022-09-09T07:48:50;34.42;;;7.78;;
6135;SDS011;24008;42.664;23.372;2022-09-09T07:51:19;24.85;;;7.57;;
6135;SDS011;24008;42.664;23.372;2022-09-09T07:53:51;18.95;;;7.38;;
6135;SDS011;24008;42.664;23.372;2022-09-09T07:56:20;76.72;;;16.45;;
6135;SDS011;24008;42.664;23.372;2022-09-09T07:58:48;135.48;;;19.27;;
6135;SDS011;24008;42.664;23.372;2022-09-09T08:01:16;63.28;;;11.38;;
6135;SDS011;24008;42.664;23.372;2022-09-09T08:03:45;40.20;;;10.68;;
6135;SDS011;24008;42.664;23.372;2022-09-09T08:06:14;42.55;;;10.65;;
6135;SDS011;24008;42.664;23.372;2022-09-09T08:08:41;15.95;;;6.72;;
6135;SDS011;24008;42.664;23.372;2022-09-09T08:11:09;22.15;;;7.03;;
6135;SDS011;24008;42.664;23.372;2022-09-09T08:13:40;56.95;;;12.52;;
6135;SDS011;24008;42.664;23.372;2022-09-09T08:16:09;57.72;;;13.25;;
6135;SDS011;24008;42.664;23.372;2022-09-09T08:18:37;42.65;;;12.50;;
6135;SDS011;24008;42.664;23.372;2022-09-09T08:21:05;75.30;;;13.18;;
6135;SDS011;24008;42.664;23.372;2022-09-09T08:23:35;29.85;;;9.57;;
6135;SDS011;24008;42.664;23.372;2022-09-09T08:26:03;61.20;;;12.40;;
6135;SDS011;24008;42.664;23.372;2022-09-09T08:28:31;28.95;;;8.63;;
6135;SDS011;24008;42.664;23.372;2022-09-09T08:31:04;23.58;;;8.13;;
6135;SDS011;24008;42.664;23.372;2022-09-09T08:33:36;98.55;;;12.95;;
6135;SDS011;24008;42.664;23.372;2022-09-09T08:36:06;10.35;;;6.78;;
6135;SDS011;24008;42.664;23.372;2022-09-09T08:38:37;13.50;;;7.32;;
6135;SDS011;24008;42.664;23.372;2022-09-09T08:41:12;14.40;;;6.72;;
6135;SDS011;24008;42.664;23.372;2022-09-09T08:43:59;9.98;;;7.20;;
6135;SDS011;24008;42.664;23.372;2022-09-09T08:46:34;13.57;;;7.13;;
6135;SDS011;24008;42.664;23.372;2022-09-09T08:52:16;27.35;;;9.88;;
6135;SDS011;24008;42.664;23.372;2022-09-09T08:54:47;18.10;;;9.18;;
6135;SDS011;24008;42.664;23.372;2022-09-09T08:57:14;20.70;;;14.82;;
6135;SDS011;24008;42.664;23.372;2022-09-09T08:59:45;20.33;;;8.98;;
6135;SDS011;24008;42.664;23.372;2022-09-09T09:02:14;15.25;;;9.27;;
6135;SDS011;24008;42.664;23.372;2022-09-09T09:04:54;13.40;;;8.63;;
6135;SDS011;24008;42.664;23.372;2022-09-09T09:07:31;15.00;;;8.50;;
6135;SDS011;24008;42.664;23.372;2022-09-09T09:10:25;14.50;;;8.57;;
6135;SDS011;24008;42.664;23.372;2022-09-09T09:13:02;15.75;;;9.18;;
6135;SDS011;24008;42.664;23.372;2022-09-09T09:15:30;12.07;;;7.78;;
6135;SDS011;24008;42.664;23.372;2022-09-09T09:18:05;18.08;;;9.38;;
6135;SDS011;24008;42.664;23.372;2022-09-09T09:20:35;15.43;;;9.30;;
6135;SDS011;24008;42.664;23.372;2022-09-09T09:23:12;11.75;;;8.18;;
6135;SDS011;24008;42.664;23.372;2022-09-09T09:25:56;8.95;;;7.80;;
6135;SDS011;24008;42.664;23.372;2022-09-09T09:28:29;12.18;;;9.07;;
6135;SDS011;24008;42.664;23.372;2022-09-09T09:30:59;9.52;;;8.52;;
6135;SDS011;24008;42.664;23.372;2022-09-09T09:33:33;17.70;;;11.40;;
6135;SDS011;24008;42.664;23.372;2022-09-09T09:36:05;12.32;;;8.48;;
6135;SDS011;24008;42.664;23.372;2022-09-09T09:38:40;12.77;;;8.73;;
6135;SDS011;24008;42.664;23.372;2022-09-09T09:41:29;19.85;;;9.00;;
6135;SDS011;24008;42.664;23.372;2022-09-09T09:43:57;12.45;;;8.50;;
6135;SDS011;24008;42.664;23.372;2022-09-09T09:46:25;10.05;;;8.23;;
6135;SDS011;24008;42.664;23.372;2022-09-09T09:49:02;19.20;;;9.02;;
6135;SDS011;24008;42.664;23.372;2022-09-09T09:51:30;33.28;;;11.82;;
6135;SDS011;24008;42.664;23.372;2022-09-09T09:54:07;22.20;;;10.05;;
6135;SDS011;24008;42.664;23.372;2022-09-09T09:56:45;17.20;;;8.43;;
6135;SDS011;24008;42.664;23.372;2022-09-09T09:59:19;17.05;;;9.18;;
6135;SDS011;24008;42.664;23.372;2022-09-09T10:02:05;23.95;;;9.68;;
6135;SDS011;24008;42.664;23.372;2022-09-09T10:04:39;13.75;;;8.30;;
6135;SDS011;24008;42.664;23.372;2022-09-09T10:07:17;17.55;;;8.80;;
6135;SDS011;24008;42.664;23.372;2022-09-09T10:09:46;20.33;;;8.57;;
6135;SDS011;24008;42.664;23.372;2022-09-09T10:12:22;11.40;;;7.90;;
6135;SDS011;24008;42.664;23.372;2022-09-09T10:15:02;20.08;;;9.40;;
6135;SDS011;24008;42.664;23.372;2022-09-09T10:17:42;15.73;;;8.88;;
6135;SDS011;24008;42.664;23.372;2022-09-09T10:20:23;14.40;;;9.10;;
6135;SDS011;24008;42.664;23.372;2022-09-09T10:23:02;16.55;;;10.10;;
6135;SDS011;24008;42.664;23.372;2022-09-09T10:25:44;16.10;;;10.32;;
6135;SDS011;24008;42.664;23.372;2022-09-09T10:28:36;15.70;;;9.73;;
6135;SDS011;24008;42.664;23.372;2022-09-09T10:31:24;13.85;;;8.85;;
6135;SDS011;24008;42.664;23.372;2022-09-09T10:34:02;9.88;;;8.05;;
6135;SDS011;24008;42.664;23.372;2022-09-09T10:36:37;14.95;;;8.23;;
6135;SDS011;24008;42.664;23.372;2022-09-09T10:39:13;14.38;;;9.30;;
6135;SDS011;24008;42.664;23.372;2022-09-09T10:41:54;14.07;;;9.88;;
6135;SDS011;24008;42.664;23.372;2022-09-09T10:44:43;16.52;;;10.32;;
6135;SDS011;24008;42.664;23.372;2022-09-09T10:47:34;52.70;;;14.15;;
6135;SDS011;24008;42.664;23.372;2022-09-09T10:50:28;15.38;;;9.50;;
6135;SDS011;24008;42.664;23.372;2022-09-09T10:53:08;26.00;;;11.43;;
6135;SDS011;24008;42.664;23.372;2022-09-09T10:55:43;13.85;;;10.15;;
6135;SDS011;24008;42.664;23.372;2022-09-09T10:58:16;25.13;;;11.00;;
6135;SDS011;24008;42.664;23.372;2022-09-09T11:00:51;13.05;;;10.55;;
6135;SDS011;24008;42.664;23.372;2022-09-09T11:03:21;15.15;;;10.20;;
6135;SDS011;24008;42.664;23.372;2022-09-09T11:05:53;13.98;;;8.90;;
6135;SDS011;24008;42.664;23.372;2022-09-09T11:08:24;15.02;;;9.73;;
6135;SDS011;24008;42.664;23.372;2022-09-09T11:10:54;12.43;;;10.50;;
6135;SDS011;24008;42.664;23.372;2022-09-09T11:13:29;16.27;;;11.07;;
6135;SDS011;24008;42.664;23.372;2022-09-09T11:16:13;19.75;;;10.95;;
6135;SDS011;24008;42.664;23.372;2022-09-09T11:18:48;20.55;;;12.60;;
6135;SDS011;24008;42.664;23.372;2022-09-09T11:21:16;14.43;;;10.35;;
6135;SDS011;24008;42.664;23.372;2022-09-09T11:23:51;16.77;;;10.20;;
6135;SDS011;24008;42.664;23.372;2022-09-09T11:26:24;17.85;;;11.52;;
6135;SDS011;24008;42.664;23.372;2022-09-09T11:29:01;18.23;;;11.00;;
6135;SDS011;24008;42.664;23.372;2022-09-09T11:31:45;14.23;;;9.30;;
6135;SDS011;24008;42.664;23.372;2022-09-09T11:34:32;12.82;;;9.98;;
6135;SDS011;24008;42.664;23.372;2022-09-09T11:37:20;17.55;;;10.48;;
6135;SDS011;24008;42.664;23.372;2022-09-09T11:40:14;14.20;;;10.98;;
6135;SDS011;24008;42.664;23.372;2022-09-09T11:42:45;17.17;;;10.85;;
6135;SDS011;24008;42.664;23.372;2022-09-09T11:45:21;17.58;;;12.30;;
6135;SDS011;24008;42.664;23.372;2022-09-09T11:47:55;28.85;;;14.77;;
6135;SDS011;24008;42.664;23.372;2022-09-09T11:50:27;23.48;;;12.45;;
6135;SDS011;24008;42.664;23.372;2022-09-09T11:53:04;16.35;;;12.07;;
6135;SDS011;24008;42.664;23.372;2022-09-09T11:55:42;16.95;;;11.20;;
6135;SDS011;24008;42.664;23.372;2022-09-09T11:58:15;24.88;;;13.10;;
6135;SDS011;24008;42.664;23.372;2022-09-09T12:00:46;17.92;;;11.65;;
6135;SDS011;24008;42.664;23.372;2022-09-09T12:06:12;20.60;;;12.43;;
6135;SDS011;24008;42.664;23.372;2022-09-09T12:08:44;18.38;;;10.88;;
6135;SDS011;24008;42.664;23.372;2022-09-09T12:11:23;18.60;;;9.43;;
6135;SDS011;24008;42.664;23.372;2022-09-09T12:13:52;21.67;;;12.27;;
6135;SDS011;24008;42.664;23.372;2022-09-09T12:16:27;26.52;;;13.88;;
6135;SDS011;24008;42.664;23.372;2022-09-09T12:19:12;17.08;;;11.45;;
6135;SDS011;24008;42.664;23.372;2022-09-09T12:21:44;33.03;;;12.48;;
6135;SDS011;24008;42.664;23.372;2022-09-09T12:24:19;32.53;;;15.38;;
6135;SDS011;24008;42.664;23.372;2022-09-09T12:26:55;14.60;;;12.02;;
6135;SDS011;24008;42.664;23.372;2022-09-09T12:29:28;18.33;;;11.45;;
6135;SDS011;24008;42.664;23.372;2022-09-09T12:32:07;19.45;;;12.05;;
6135;SDS011;24008;42.664;23.372;2022-09-09T12:34:40;32.10;;;16.02;;
6135;SDS011;24008;42.664;23.372;2022-09-09T12:37:12;23.83;;;15.30;;
6135;SDS011;24008;42.664;23.372;2022-09-09T12:39:45;26.80;;;19.98;;
6135;SDS011;24008;42.664;23.372;2022-09-09T12:42:16;34.17;;;15.68;;
6135;SDS011;24008;42.664;23.372;2022-09-09T12:44:54;23.08;;;13.65;;
6135;SDS011;24008;42.664;23.372;2022-09-09T12:47:27;27.95;;;13.27;;
6135;SDS011;24008;42.664;23.372;2022-09-09T12:50:05;116.72;;;19.70;;
6135;SDS011;24008;42.664;23.372;2022-09-09T12:52:43;123.90;;;18.75;;
6135;SDS011;24008;42.664;23.372;2022-09-09T12:55:15;52.42;;;16.10;;
6135;SDS011;24008;42.664;23.372;2022-09-09T12:57:44;70.45;;;16.38;;
6135;SDS011;24008;42.664;23.372;2022-09-09T13:00:13;33.28;;;13.07;;
6135;SDS011;24008;42.664;23.372;2022-09-09T13:02:54;57.40;;;14.63;;
6135;SDS011;24008;42.664;23.372;2022-09-09T13:05:24;38.83;;;13.05;;
6135;SDS011;24008;42.664;23.372;2022-09-09T13:08:00;24.35;;;12.18;;
6135;SDS011;24008;42.664;23.372;2022-09-09T13:10:28;30.52;;;13.75;;
6135;SDS011;24008;42.664;23.372;2022-09-09T13:12:58;34.80;;;16.38;;
6135;SDS011;24008;42.664;23.372;2022-09-09T13:15:26;19.08;;;13.32;;
6135;SDS011;24008;42.664;23.372;2022-09-09T13:17:56;18.35;;;12.65;;
6135;SDS011;24008;42.664;23.372;2022-09-09T13:20:27;40.58;;;12.70;;
6135;SDS011;24008;42.664;23.372;2022-09-09T13:22:56;16.67;;;10.25;;
6135;SDS011;24008;42.664;23.372;2022-09-09T13:25:24;13.30;;;11.07;;
6135;SDS011;24008;42.664;23.372;2022-09-09T13:27:53;25.30;;;14.80;;
6135;SDS011;24008;42.664;23.372;2022-09-09T13:30:23;20.63;;;12.93;;
6135;SDS011;24008;42.664;23.372;2022-09-09T13:33:05;17.65;;;13.00;;
6135;SDS011;24008;42.664;23.372;2022-09-09T13:35:50;29.58;;;15.00;;
6135;SDS011;24008;42.664;23.372;2022-09-09T13:38:18;21.23;;;11.98;;
6135;SDS011;24008;42.664;23.372;2022-09-09T13:40:53;21.52;;;11.15;;
6135;SDS011;24008;42.664;23.372;2022-09-09T13:43:23;45.55;;;15.77;;
6135;SDS011;24008;42.664;23.372;2022-09-09T13:45:55;18.00;;;12.23;;
6135;SDS011;24008;42.664;23.372;2022-09-09T13:48:24;17.08;;;11.13;;
6135;SDS011;24008;42.664;23.372;2022-09-09T13:50:57;21.10;;;10.80;;
6135;SDS011;24008;42.664;23.372;2022-09-09T13:53:26;20.08;;;11.25;;
6135;SDS011;24008;42.664;23.372;2022-09-09T13:55:53;25.25;;;11.70;;
6135;SDS011;24008;42.664;23.372;2022-09-09T13:58:20;31.45;;;15.32;;
6135;SDS011;24008;42.664;23.372;2022-09-09T14:00:47;25.92;;;13.52;;
6135;SDS011;24008;42.664;23.372;2022-09-09T14:03:15;18.00;;;11.93;;
6135;SDS011;24008;42.664;23.372;2022-09-09T14:05:42;23.55;;;12.98;;
6135;SDS011;24008;42.664;23.372;2022-09-09T14:08:14;20.00;;;12.90;;
6135;SDS011;24008;42.664;23.372;2022-09-09T14:10:47;24.65;;;13.07;;
6135;SDS011;24008;42.664;23.372;2022-09-09T14:13:14;34.85;;;14.32;;
6135;SDS011;24008;42.664;23.372;2022-09-09T14:15:41;20.45;;;12.25;;
6135;SDS011;24008;42.664;23.372;2022-09-09T14:18:09;20.23;;;12.00;;
6135;SDS011;24008;42.664;23.372;2022-09-09T14:20:39;22.10;;;12.23;;
6135;SDS011;24008;42.664;23.372;2022-09-09T14:23:07;24.45;;;13.38;;
6135;SDS011;24008;42.664;23.372;2022-09-09T14:25:41;22.77;;;12.30;;
6135;SDS011;24008;42.664;23.372;2022-09-09T14:28:09;22.52;;;11.88;;
6135;SDS011;24008;42.664;23.372;2022-09-09T14:30:37;20.30;;;12.35;;
6135;SDS011;24008;42.664;23.372;2022-09-09T14:33:05;18.80;;;12.15;;
6135;SDS011;24008;42.664;23.372;2022-09-09T14:35:32;23.27;;;11.95;;
6135;SDS011;24008;42.664;23.372;2022-09-09T14:37:59;19.92;;;11.80;;
6135;SDS011;24008;42.664;23.372;2022-09-09T14:40:29;22.85;;;12.88;;
6135;SDS011;24008;42.664;23.372;2022-09-09T14:42:56;21.23;;;11.40;;
6135;SDS011;24008;42.664;23.372;2022-09-09T14:45:23;251.63;;;208.77;;
6135;SDS011;24008;42.664;23.372;2022-09-09T14:47:51;203.40;;;178.63;;
6135;SDS011;24008;42.664;23.372;2022-09-09T14:50:19;296.52;;;264.52;;
6135;SDS011;24008;42.664;23.372;2022-09-09T14:52:46;50.95;;;33.75;;
6135;SDS011;24008;42.664;23.372;2022-09-09T14:55:14;26.42;;;15.48;;
6135;SDS011;24008;42.664;23.372;2022-09-09T14:57:42;23.35;;;12.07;;
6135;SDS011;24008;42.664;23.372;2022-09-09T15:00:10;17.48;;;12.20;;